createdAt,value
2023-03-26T00:01:10.734Z,7.15
2023-03-26T00:03:39.207Z,7.72
2023-03-26T00:06:14.010Z,6.00
2023-03-26T00:08:42.593Z,5.13
2023-03-26T00:11:11.724Z,8.97
2023-03-26T00:13:39.411Z,4.78
2023-03-26T00:16:06.560Z,4.55
2023-03-26T00:18:34.995Z,7.32
2023-03-26T00:21:05.611Z,5.70
2023-03-26T00:23:34.083Z,5.95
2023-03-26T00:26:02.926Z,3.90
2023-03-26T00:28:30.073Z,4.47
2023-03-26T00:31:02.216Z,6.25
2023-03-26T00:33:29.444Z,5.57
2023-03-26T00:35:58.864Z,6.43
2023-03-26T00:38:27.488Z,5.43
2023-03-26T00:40:55.040Z,5.10
2023-03-26T00:43:22.833Z,5.82
2023-03-26T00:45:52.428Z,4.63
2023-03-26T00:48:20.914Z,5.82
2023-03-26T00:50:50.886Z,7.72
2023-03-26T00:53:17.939Z,3.42
2023-03-26T00:55:47.828Z,4.78
2023-03-26T00:58:15.689Z,5.78
2023-03-26T01:00:51.062Z,6.68
2023-03-26T01:03:26.930Z,5.15
2023-03-26T01:06:22.839Z,3.88
2023-03-26T01:08:52.922Z,4.80
2023-03-26T01:11:27.129Z,4.88
2023-03-26T01:14:14.678Z,6.15
2023-03-26T01:16:50.053Z,5.05
2023-03-26T01:19:39.764Z,5.00
2023-03-26T01:22:12.200Z,4.68
2023-03-26T01:24:40.259Z,8.27
2023-03-26T01:27:34.572Z,6.47
2023-03-26T01:30:05.933Z,6.75
2023-03-26T01:32:50.841Z,5.82
2023-03-26T01:35:20.153Z,3.10
2023-03-26T01:38:10.608Z,3.78
2023-03-26T01:40:43.321Z,3.85
2023-03-26T01:43:31.170Z,5.20
2023-03-26T01:46:02.062Z,2.10
2023-03-26T01:48:36.319Z,2.67
2023-03-26T01:51:04.974Z,4.40
2023-03-26T01:53:33.518Z,4.33
2023-03-26T01:56:22.658Z,2.47
2023-03-26T01:59:03.780Z,3.70
2023-03-26T02:01:45.137Z,1.67
2023-03-26T02:04:20.869Z,2.63
2023-03-26T02:07:20.970Z,1.42
2023-03-26T02:09:55.349Z,1.20
2023-03-26T02:12:22.825Z,1.60
2023-03-26T02:14:49.843Z,1.75
2023-03-26T02:17:16.832Z,1.40
2023-03-26T02:19:43.514Z,1.15
2023-03-26T02:22:11.402Z,4.43
2023-03-26T02:24:40.850Z,1.75
2023-03-26T02:29:40.615Z,0.95
2023-03-26T02:32:08.652Z,1.40
2023-03-26T02:34:36.812Z,1.90
2023-03-26T02:37:03.557Z,2.30
2023-03-26T02:39:30.257Z,1.48
2023-03-26T02:41:56.839Z,1.35
2023-03-26T02:44:23.588Z,1.33
2023-03-26T02:46:50.499Z,1.13
2023-03-26T02:49:17.479Z,2.15
2023-03-26T02:51:44.181Z,4.35
2023-03-26T02:54:11.044Z,0.88
2023-03-26T02:56:37.879Z,1.33
2023-03-26T02:59:04.641Z,1.48
2023-03-26T03:01:34.958Z,2.13
2023-03-26T03:04:04.331Z,1.98
2023-03-26T03:06:32.510Z,1.17
2023-03-26T03:08:59.235Z,2.45
2023-03-26T03:11:25.887Z,1.25
2023-03-26T03:13:54.078Z,1.80
2023-03-26T03:16:20.992Z,1.98
2023-03-26T03:18:54.339Z,3.83
2023-03-26T03:21:21.977Z,1.63
2023-03-26T03:23:48.824Z,4.00
2023-03-26T03:26:21.754Z,5.97
2023-03-26T03:28:49.670Z,5.78
2023-03-26T03:31:18.001Z,4.50
2023-03-26T03:33:46.456Z,5.93
2023-03-26T03:36:20.828Z,8.67
2023-03-26T03:38:49.984Z,4.03
2023-03-26T03:41:18.636Z,4.97
2023-03-26T03:43:45.783Z,7.38
2023-03-26T03:46:12.425Z,3.80
2023-03-26T03:48:39.216Z,5.93
2023-03-26T03:51:06.382Z,5.15
2023-03-26T03:53:37.162Z,6.25
2023-03-26T03:56:10.179Z,9.88
2023-03-26T03:58:37.513Z,7.38
2023-03-26T04:01:04.734Z,5.55
2023-03-26T04:03:34.132Z,11.10
2023-03-26T04:06:01.573Z,10.15
2023-03-26T04:08:28.248Z,13.50
2023-03-26T04:10:54.988Z,7.00
2023-03-26T04:13:21.672Z,12.30
2023-03-26T04:15:48.457Z,8.40
2023-03-26T04:18:15.321Z,11.80
2023-03-26T04:20:47.523Z,13.27
2023-03-26T04:23:15.881Z,14.20
2023-03-26T04:25:48.512Z,7.47
2023-03-26T04:28:28.815Z,11.45
2023-03-26T04:30:57.120Z,13.27
2023-03-26T04:33:25.113Z,13.25
2023-03-26T04:35:52.244Z,15.32
2023-03-26T04:38:18.998Z,12.75
2023-03-26T04:40:48.674Z,14.52
2023-03-26T04:43:18.207Z,10.77
2023-03-26T04:45:45.955Z,11.57
2023-03-26T04:48:15.692Z,13.15
2023-03-26T04:50:44.164Z,10.23
2023-03-26T04:53:16.753Z,10.27
2023-03-26T04:56:11.935Z,15.77
2023-03-26T04:58:39.992Z,12.65
2023-03-26T05:01:10.253Z,12.25
2023-03-26T05:03:39.270Z,6.90
2023-03-26T05:06:06.257Z,19.00
2023-03-26T05:08:32.977Z,15.52
2023-03-26T05:10:59.684Z,10.27
2023-03-26T05:13:26.306Z,11.77
2023-03-26T05:15:53.049Z,9.93
2023-03-26T05:18:19.716Z,16.33
2023-03-26T05:20:46.567Z,12.82
2023-03-26T05:23:13.513Z,11.40
2023-03-26T05:25:40.520Z,20.77
2023-03-26T05:28:07.188Z,13.18
2023-03-26T05:30:33.985Z,12.68
2023-03-26T05:33:00.802Z,13.38
2023-03-26T05:35:27.556Z,16.58
2023-03-26T05:37:54.198Z,11.35
2023-03-26T05:40:21.443Z,18.63
2023-03-26T05:42:48.181Z,19.63
2023-03-26T05:45:15.634Z,13.95
2023-03-26T05:47:42.573Z,11.48
2023-03-26T05:50:10.670Z,13.50
2023-03-26T05:52:37.589Z,11.90
2023-03-26T05:55:04.586Z,13.90
2023-03-26T05:57:32.101Z,14.98
2023-03-26T05:59:58.869Z,16.80
2023-03-26T06:02:25.539Z,14.10
2023-03-26T06:04:52.716Z,11.93
2023-03-26T06:07:20.200Z,15.55
2023-03-26T06:09:47.116Z,15.32
2023-03-26T06:12:14.431Z,15.95
2023-03-26T06:14:42.957Z,14.05
2023-03-26T06:17:10.730Z,14.17
2023-03-26T06:19:37.697Z,10.93
2023-03-26T06:22:05.497Z,10.75
2023-03-26T06:24:33.482Z,14.73
2023-03-26T06:27:00.471Z,14.55
2023-03-26T06:29:27.286Z,21.88
2023-03-26T06:31:54.028Z,14.43
2023-03-26T06:34:21.014Z,20.05
2023-03-26T06:36:48.911Z,13.18
2023-03-26T06:39:16.115Z,15.65
2023-03-26T06:41:43.046Z,11.57
2023-03-26T06:44:11.236Z,11.10
2023-03-26T06:46:39.159Z,15.77
2023-03-26T06:49:06.103Z,8.57
2023-03-26T06:51:32.818Z,12.00
2023-03-26T06:53:59.444Z,11.68
2023-03-26T06:56:26.269Z,13.88
2023-03-26T06:58:52.938Z,13.95
2023-03-26T07:01:19.752Z,11.80
2023-03-26T07:03:46.583Z,13.57
2023-03-26T07:06:13.371Z,13.20
2023-03-26T07:08:40.018Z,13.68
2023-03-26T07:11:06.903Z,17.38
2023-03-26T07:13:33.625Z,12.73
2023-03-26T07:16:00.280Z,13.55
2023-03-26T07:18:27.075Z,16.13
2023-03-26T07:20:54.212Z,13.02
2023-03-26T07:23:21.448Z,15.13
2023-03-26T07:25:48.692Z,16.10
2023-03-26T07:28:18.395Z,16.77
2023-03-26T07:31:07.156Z,14.30
2023-03-26T07:33:58.764Z,16.30
2023-03-26T07:36:32.642Z,11.02
2023-03-26T07:39:05.375Z,11.95
2023-03-26T07:41:51.269Z,12.80
2023-03-26T07:44:36.740Z,8.23
2023-03-26T07:47:18.173Z,12.40
2023-03-26T07:49:45.018Z,14.85
2023-03-26T07:52:12.012Z,14.23
2023-03-26T07:54:59.079Z,15.73
2023-03-26T07:57:53.299Z,12.82
2023-03-26T08:00:26.393Z,11.18
2023-03-26T08:03:30.477Z,16.65
2023-03-26T08:06:03.026Z,12.13
2023-03-26T08:09:04.740Z,20.45
2023-03-26T08:11:57.187Z,12.20
2023-03-26T08:14:45.655Z,7.90
2023-03-26T08:17:12.183Z,15.53
2023-03-26T08:19:38.870Z,11.05
2023-03-26T08:22:20.855Z,10.30
2023-03-26T08:25:25.557Z,11.90
2023-03-26T08:28:04.367Z,14.18
2023-03-26T08:30:31.350Z,16.38
2023-03-26T08:33:03.174Z,9.32
2023-03-26T08:35:30.105Z,12.60
2023-03-26T08:37:56.804Z,15.48
2023-03-26T08:41:01.676Z,13.60
2023-03-26T08:44:09.817Z,13.55
2023-03-26T08:47:00.036Z,12.88
2023-03-26T08:49:56.690Z,13.45
2023-03-26T08:52:47.710Z,9.00
2023-03-26T08:55:42.082Z,13.18
2023-03-26T08:58:46.192Z,11.48
2023-03-26T09:01:31.488Z,16.08
2023-03-26T09:04:22.987Z,16.25
2023-03-26T09:07:17.157Z,12.07
2023-03-26T09:10:17.089Z,12.90
2023-03-26T09:12:58.876Z,17.50
2023-03-26T09:15:28.597Z,16.73
2023-03-26T09:18:23.183Z,11.40
2023-03-26T09:21:27.415Z,12.13
2023-03-26T09:24:31.741Z,12.98
2023-03-26T09:27:23.656Z,14.38
2023-03-26T09:29:50.425Z,12.18
2023-03-26T09:32:25.921Z,10.13
2023-03-26T09:35:13.834Z,15.13
2023-03-26T09:37:56.704Z,13.35
2023-03-26T09:40:37.219Z,13.30
2023-03-26T09:43:24.148Z,12.68
2023-03-26T09:46:24.897Z,13.05
2023-03-26T09:49:02.739Z,13.45
2023-03-26T09:51:57.234Z,15.32
2023-03-26T09:54:44.478Z,11.13
2023-03-26T09:57:20.489Z,11.32
2023-03-26T10:00:07.121Z,10.30
2023-03-26T10:03:14.737Z,14.93
2023-03-26T10:06:19.372Z,10.07
2023-03-26T10:09:17.677Z,14.55
2023-03-26T10:12:06.063Z,9.88
2023-03-26T10:15:00.293Z,10.73
2023-03-26T10:17:52.972Z,12.35
2023-03-26T10:20:48.962Z,11.48
2023-03-26T10:23:26.023Z,9.52
2023-03-26T10:26:11.189Z,10.35
2023-03-26T10:29:01.619Z,11.45
2023-03-26T10:31:59.965Z,9.60
2023-03-26T10:34:44.828Z,13.13
2023-03-26T10:37:19.695Z,11.90
2023-03-26T10:40:02.084Z,10.27
2023-03-26T10:42:54.815Z,16.15
2023-03-26T10:45:48.240Z,11.88
2023-03-26T10:48:53.126Z,11.90
2023-03-26T10:51:39.891Z,12.70
2023-03-26T10:54:22.136Z,11.95
2023-03-26T10:56:52.450Z,8.63
2023-03-26T10:59:19.323Z,7.47
2023-03-26T11:02:41.595Z,10.10
2023-03-26T11:05:36.117Z,8.35
2023-03-26T11:08:12.303Z,10.77
2023-03-26T11:11:05.316Z,11.70
2023-03-26T11:13:43.430Z,5.72
2023-03-26T11:16:15.589Z,9.48
2023-03-26T11:18:56.050Z,9.95
2023-03-26T11:21:32.719Z,10.90
2023-03-26T11:24:14.301Z,6.90
2023-03-26T11:26:49.051Z,12.85
2023-03-26T11:29:32.134Z,8.43
2023-03-26T11:32:17.541Z,8.88
2023-03-26T11:34:59.055Z,6.22
2023-03-26T11:37:41.652Z,7.82
2023-03-26T11:40:21.515Z,9.15
2023-03-26T11:42:51.526Z,7.20
2023-03-26T11:45:26.327Z,6.25
2023-03-26T11:47:58.844Z,9.70
2023-03-26T11:50:30.579Z,8.07
2023-03-26T11:53:02.184Z,11.40
2023-03-26T11:55:30.567Z,6.70
2023-03-26T11:58:00.130Z,9.02
2023-03-26T12:00:28.696Z,8.45
2023-03-26T12:03:00.446Z,6.53
2023-03-26T12:05:36.616Z,7.32
2023-03-26T12:08:18.576Z,4.85
2023-03-26T12:10:58.568Z,6.78
2023-03-26T12:13:59.450Z,5.88
2023-03-26T12:16:27.578Z,5.55
2023-03-26T12:19:00.379Z,6.00
2023-03-26T12:21:27.216Z,6.90
2023-03-26T12:23:56.419Z,6.55
2023-03-26T12:26:41.425Z,6.57
2023-03-26T12:29:16.673Z,4.28
2023-03-26T12:32:04.953Z,2.85
2023-03-26T12:34:37.744Z,2.03
2023-03-26T12:37:07.208Z,2.42
2023-03-26T12:44:49.408Z,4.53
2023-03-26T12:45:14.082Z,2.72
2023-03-26T12:48:01.350Z,2.95
2023-03-26T12:51:01.268Z,3.03
2023-03-26T12:53:49.327Z,1.27
2023-03-26T12:56:49.922Z,4.13
2023-03-26T13:00:09.487Z,4.78
2023-03-26T13:02:39.110Z,3.92
2023-03-26T13:05:24.698Z,3.60
2023-03-26T13:08:36.091Z,2.03
2023-03-26T13:11:02.708Z,1.80
2023-03-26T13:13:46.686Z,1.17
2023-03-26T13:16:46.572Z,2.45
2023-03-26T13:19:20.722Z,2.60
2023-03-26T13:21:54.785Z,3.00
2023-03-26T13:24:30.855Z,2.20
2023-03-26T13:27:28.485Z,1.77
2023-03-26T13:29:56.871Z,0.70
2023-03-26T13:32:30.505Z,1.65
2023-03-26T13:35:06.371Z,3.35
2023-03-26T13:37:39.070Z,3.22
2023-03-26T13:40:40.677Z,1.67
2023-03-26T13:43:38.065Z,3.15
2023-03-26T13:46:14.000Z,2.90
2023-03-26T13:48:53.012Z,2.05
2023-03-26T13:51:44.019Z,2.38
2023-03-26T13:54:13.884Z,2.67
2023-03-26T13:56:46.449Z,2.25
2023-03-26T13:59:20.778Z,3.30
2023-03-26T14:01:54.599Z,13.27
2023-03-26T14:04:49.877Z,6.47
2023-03-26T14:07:23.610Z,2.80
2023-03-26T14:10:07.301Z,3.08
2023-03-26T14:12:56.985Z,3.25
2023-03-26T14:15:50.377Z,2.35
2023-03-26T14:19:12.333Z,3.22
2023-03-26T14:22:08.438Z,1.50
2023-03-26T14:24:54.158Z,2.58
2023-03-26T14:27:42.669Z,1.88
2023-03-26T14:30:12.364Z,1.30
2023-03-26T14:33:17.820Z,2.47
2023-03-26T14:35:57.124Z,2.38
2023-03-26T14:38:35.004Z,3.17
2023-03-26T14:41:20.425Z,3.42
2023-03-26T14:44:08.787Z,1.45
2023-03-26T14:46:38.488Z,4.22
2023-03-26T14:49:26.020Z,3.88
2023-03-26T14:52:02.272Z,3.83
2023-03-26T14:54:33.466Z,3.40
2023-03-26T14:57:02.877Z,2.67
2023-03-26T15:02:42.039Z,3.38
2023-03-26T15:05:27.083Z,3.88
2023-03-26T15:08:33.565Z,2.45
2023-03-26T15:11:45.629Z,2.75
2023-03-26T15:14:30.619Z,3.95
2023-03-26T15:17:25.981Z,3.90
2023-03-26T15:20:18.941Z,2.70
2023-03-26T15:23:33.859Z,2.10
2023-03-26T15:26:41.728Z,3.72
2023-03-26T15:29:21.738Z,2.72
2023-03-26T15:32:12.579Z,2.08
2023-03-26T15:35:20.200Z,2.53
2023-03-26T15:38:23.940Z,3.30
2023-03-26T15:41:08.673Z,5.30
2023-03-26T15:46:38.218Z,4.07
2023-03-26T15:49:31.388Z,4.15
2023-03-26T15:52:53.803Z,6.30
2023-03-26T15:55:51.509Z,3.25
2023-03-26T15:58:27.381Z,2.60
2023-03-26T16:01:18.911Z,4.05
2023-03-26T16:04:02.471Z,3.17
2023-03-26T16:06:48.249Z,4.72
2023-03-26T16:10:04.653Z,4.75
2023-03-26T16:13:15.855Z,4.78
2023-03-26T16:15:44.151Z,3.33
2023-03-26T16:18:12.045Z,2.83
2023-03-26T16:21:04.402Z,2.03
2023-03-26T16:23:53.747Z,2.85
2023-03-26T16:26:27.657Z,2.17
2023-03-26T16:28:54.195Z,5.13
2023-03-26T16:31:37.064Z,3.80
2023-03-26T16:34:07.181Z,2.97
2023-03-26T16:36:37.885Z,1.77
2023-03-26T16:39:04.973Z,3.90
2023-03-26T16:42:05.615Z,2.40
2023-03-26T16:44:42.289Z,2.30
2023-03-26T16:47:50.465Z,2.10
2023-03-26T16:50:32.688Z,2.63
2023-03-26T16:53:47.721Z,3.97
2023-03-26T16:56:33.557Z,2.47
2023-03-26T16:59:07.747Z,2.70
2023-03-26T17:01:48.248Z,4.05
2023-03-26T17:04:27.468Z,4.43
2023-03-26T17:07:04.153Z,3.63
2023-03-26T17:09:51.997Z,5.10
2023-03-26T17:12:44.369Z,6.45
2023-03-26T17:15:42.456Z,3.88
2023-03-26T17:18:33.624Z,4.18
2023-03-26T17:21:28.990Z,5.63
2023-03-26T17:24:32.237Z,5.25
2023-03-26T17:27:16.853Z,4.50
2023-03-26T17:30:00.557Z,3.42
2023-03-26T17:33:07.250Z,6.97
2023-03-26T17:35:41.100Z,8.00
2023-03-26T17:38:34.143Z,5.65
2023-03-26T17:41:00.806Z,4.18
2023-03-26T17:43:50.019Z,5.72
2023-03-26T17:46:43.718Z,3.60
2023-03-26T17:49:20.411Z,5.68
2023-03-26T17:52:15.324Z,5.15
2023-03-26T17:54:49.263Z,6.03
2023-03-26T17:57:22.324Z,5.03
2023-03-26T17:59:53.261Z,3.60
2023-03-26T18:02:27.849Z,3.65
2023-03-26T18:04:55.900Z,2.47
2023-03-26T18:07:46.772Z,3.70
2023-03-26T18:10:19.390Z,3.13
2023-03-26T18:12:56.830Z,2.85
2023-03-26T18:15:36.724Z,3.13
2023-03-26T18:18:32.006Z,2.85
2023-03-26T18:21:03.669Z,3.42
2023-03-26T18:23:36.800Z,3.83
2023-03-26T18:26:16.625Z,2.88
2023-03-26T18:29:04.611Z,3.17
2023-03-26T18:31:31.778Z,2.83
2023-03-26T18:34:06.757Z,4.28
2023-03-26T18:36:33.396Z,3.30
2023-03-26T18:39:00.317Z,2.78
2023-03-26T18:41:41.833Z,4.40
2023-03-26T18:44:14.759Z,4.93
2023-03-26T18:46:42.767Z,2.58
2023-03-26T18:49:13.402Z,2.95
2023-03-26T18:51:54.059Z,3.15
2023-03-26T18:54:24.776Z,5.90
2023-03-26T18:56:52.805Z,2.08
2023-03-26T18:59:28.219Z,1.25
2023-03-26T19:01:57.776Z,1.08
2023-03-26T19:04:27.161Z,2.70
2023-03-26T19:06:55.939Z,1.67
2023-03-26T19:09:31.684Z,2.43
2023-03-26T19:12:08.651Z,3.60
2023-03-26T19:14:57.620Z,1.52
2023-03-26T19:17:28.606Z,2.20
2023-03-26T19:19:57.410Z,2.35
2023-03-26T19:22:25.312Z,1.60
2023-03-26T19:24:57.867Z,1.90
2023-03-26T19:27:24.809Z,2.42
2023-03-26T19:29:51.744Z,1.70
2023-03-26T19:32:27.977Z,1.65
2023-03-26T19:34:54.728Z,3.30
2023-03-26T19:37:29.894Z,1.63
2023-03-26T19:40:12.855Z,1.27
2023-03-26T19:42:43.774Z,1.55
2023-03-26T19:45:23.234Z,1.20
2023-03-26T19:48:03.458Z,1.20
2023-03-26T19:50:42.558Z,1.13
2023-03-26T19:53:37.433Z,1.58
2023-03-26T19:56:14.621Z,1.83
2023-03-26T19:58:42.598Z,3.13
2023-03-26T20:01:21.807Z,3.67
2023-03-26T20:03:52.832Z,4.68
2023-03-26T20:06:30.737Z,5.32
2023-03-26T20:09:05.014Z,4.95
2023-03-26T20:11:36.643Z,4.05
2023-03-26T20:14:12.714Z,3.20
2023-03-26T20:16:40.060Z,2.70
2023-03-26T20:19:08.953Z,2.83
2023-03-26T20:21:38.024Z,1.63
2023-03-26T20:24:16.107Z,3.95
2023-03-26T20:26:43.737Z,1.75
2023-03-26T20:29:11.733Z,3.03
2023-03-26T20:31:41.682Z,2.65
2023-03-26T20:34:23.496Z,3.17
2023-03-26T20:36:55.333Z,2.25
2023-03-26T20:39:23.770Z,1.00
2023-03-26T20:41:54.782Z,1.45
2023-03-26T20:44:22.585Z,2.05
2023-03-26T20:46:50.177Z,1.70
2023-03-26T20:49:18.212Z,1.67
2023-03-26T20:51:46.776Z,1.45
2023-03-26T20:54:21.528Z,1.10
2023-03-26T20:56:49.221Z,1.05
2023-03-26T20:59:22.374Z,1.48
2023-03-26T21:01:50.423Z,1.20
2023-03-26T21:04:17.998Z,1.70
2023-03-26T21:06:45.356Z,1.13
2023-03-26T21:09:17.807Z,1.30
2023-03-26T21:12:02.304Z,0.70
2023-03-26T21:14:44.247Z,2.15
2023-03-26T21:17:22.241Z,2.25
2023-03-26T21:19:49.634Z,2.35
2023-03-26T21:22:29.949Z,1.23
2023-03-26T21:25:19.815Z,2.33
2023-03-26T21:28:19.494Z,1.27
2023-03-26T21:31:06.651Z,1.10
2023-03-26T21:33:33.357Z,1.00
2023-03-26T21:36:00.427Z,0.70
2023-03-26T21:38:27.700Z,1.33
2023-03-26T21:40:58.789Z,0.88
2023-03-26T21:43:26.155Z,1.63
2023-03-26T21:45:57.471Z,4.25
2023-03-26T21:48:24.492Z,6.93
2023-03-26T21:50:51.453Z,7.22
2023-03-26T21:53:18.417Z,9.32
2023-03-26T21:56:17.282Z,6.45
2023-03-26T21:58:59.034Z,6.22
2023-03-26T22:01:31.662Z,10.00
2023-03-26T22:04:06.205Z,7.93
2023-03-26T22:06:38.311Z,9.88
2023-03-26T22:09:05.331Z,7.18
2023-03-26T22:11:31.948Z,9.60
2023-03-26T22:13:59.398Z,8.43
2023-03-26T22:16:26.186Z,7.47
2023-03-26T22:18:53.860Z,9.10
2023-03-26T22:21:20.795Z,6.63
2023-03-26T22:23:52.750Z,9.80
2023-03-26T22:26:24.349Z,8.82
2023-03-26T22:28:51.098Z,16.10
2023-03-26T22:31:18.262Z,11.98
2023-03-26T22:33:45.002Z,15.65
2023-03-26T22:36:22.667Z,15.38
2023-03-26T22:38:55.219Z,14.98
2023-03-26T22:41:22.459Z,15.65
2023-03-26T22:43:52.138Z,15.65
2023-03-26T22:46:19.572Z,13.55
2023-03-26T22:48:48.270Z,15.90
2023-03-26T22:51:15.454Z,15.13
2023-03-26T22:53:42.097Z,15.20
2023-03-26T22:56:09.472Z,17.35
2023-03-26T22:58:36.487Z,15.88
2023-03-26T23:01:15.065Z,12.80
2023-03-26T23:03:41.651Z,15.10
2023-03-26T23:06:11.047Z,13.95
2023-03-26T23:11:19.312Z,15.75
2023-03-26T23:13:47.829Z,13.93
2023-03-26T23:16:15.545Z,16.93
2023-03-26T23:18:42.376Z,22.95
2023-03-26T23:21:20.435Z,18.38
2023-03-26T23:23:48.340Z,17.60
2023-03-26T23:26:15.655Z,26.70
2023-03-26T23:28:43.370Z,17.58
2023-03-26T23:31:12.506Z,17.55
2023-03-26T23:36:17.794Z,17.30
2023-03-26T23:38:49.620Z,24.88
2023-03-26T23:41:19.385Z,18.50
2023-03-26T23:43:55.518Z,12.93
2023-03-26T23:46:24.779Z,15.63
2023-03-26T23:48:52.190Z,19.63
2023-03-26T23:51:20.304Z,15.38
2023-03-26T23:53:47.678Z,16.15
2023-03-26T23:56:15.403Z,14.80
2023-03-26T23:58:42.238Z,14.60
